createdAt,value
2023-01-01T00:01:41.982Z,54.60
2023-01-01T00:04:17.040Z,58.50
2023-01-01T00:06:49.272Z,56.10
2023-01-01T00:09:38.925Z,60.00
2023-01-01T00:12:11.988Z,60.70
2023-01-01T00:14:44.563Z,55.50
2023-01-01T00:17:16.856Z,51.90
2023-01-01T00:19:49.042Z,51.70
2023-01-01T00:22:53.194Z,54.20
2023-01-01T00:25:15.373Z,56.60
2023-01-01T00:27:47.568Z,60.20
2023-01-01T00:30:20.105Z,53.20
2023-01-01T00:32:55.548Z,58.60
2023-01-01T00:35:28.785Z,53.40
2023-01-01T00:38:00.979Z,62.60
2023-01-01T00:40:33.206Z,59.00
2023-01-01T00:43:05.546Z,57.20
2023-01-01T00:45:37.962Z,58.80
2023-01-01T00:48:10.702Z,52.20
2023-01-01T00:50:42.993Z,56.70
2023-01-01T00:53:15.432Z,53.30
2023-01-01T00:55:48.979Z,56.20
2023-01-01T00:58:22.271Z,56.80
2023-01-01T01:00:55.815Z,56.10
2023-01-01T01:03:30.937Z,56.10
2023-01-01T01:06:12.898Z,68.10
2023-01-01T01:08:47.682Z,55.40
2023-01-01T01:11:21.795Z,58.00
2023-01-01T01:13:56.128Z,62.60
2023-01-01T01:16:30.815Z,56.20
2023-01-01T01:19:04.821Z,54.00
2023-01-01T01:21:37.593Z,55.90
2023-01-01T01:24:11.204Z,57.50
2023-01-01T01:26:43.564Z,53.50
2023-01-01T01:29:15.784Z,54.20
2023-01-01T01:31:47.988Z,56.70
2023-01-01T01:34:27.140Z,57.00
2023-01-01T01:37:00.225Z,59.10
2023-01-01T01:39:32.453Z,51.60
2023-01-01T01:42:05.026Z,53.60
2023-01-01T01:45:07.302Z,61.70
2023-01-01T01:47:47.651Z,64.90
2023-01-01T01:50:26.245Z,60.70
2023-01-01T01:53:09.518Z,57.40
2023-01-01T01:55:47.297Z,62.30
2023-01-01T01:58:20.218Z,54.00
2023-01-01T02:00:52.656Z,57.90
2023-01-01T02:03:28.703Z,60.60
2023-01-01T02:06:02.742Z,61.90
2023-01-01T02:08:36.275Z,58.70
2023-01-01T02:11:08.858Z,60.40
2023-01-01T02:13:41.483Z,59.10
2023-01-01T02:16:21.143Z,54.20
2023-01-01T02:19:00.116Z,64.10
2023-01-01T02:21:36.510Z,65.00
2023-01-01T02:24:30.320Z,59.90
2023-01-01T02:27:08.214Z,62.70
2023-01-01T02:29:46.915Z,73.20
2023-01-01T02:32:23.796Z,57.20
2023-01-01T02:35:23.128Z,60.70
2023-01-01T02:38:00.538Z,54.10
2023-01-01T02:40:33.122Z,61.60
2023-01-01T02:43:06.478Z,65.80
2023-01-01T02:45:38.893Z,57.10
2023-01-01T02:48:39.268Z,63.90
2023-01-01T02:51:19.268Z,58.80
2023-01-01T02:54:01.021Z,63.00
2023-01-01T02:56:41.732Z,60.60
2023-01-01T02:59:40.364Z,55.00
2023-01-01T03:02:27.386Z,55.80
2023-01-01T03:05:09.728Z,56.00
2023-01-01T03:07:51.484Z,65.10
2023-01-01T03:10:32.074Z,57.30
2023-01-01T03:13:12.834Z,62.00
2023-01-01T03:15:52.334Z,67.70
2023-01-01T03:18:29.941Z,66.60
2023-01-01T03:21:06.439Z,60.80
2023-01-01T03:23:49.343Z,59.10
2023-01-01T03:26:24.951Z,58.40
2023-01-01T03:29:01.283Z,55.60
2023-01-01T03:31:35.041Z,59.60
2023-01-01T03:34:13.415Z,55.70
2023-01-01T03:36:50.027Z,55.80
2023-01-01T03:39:24.705Z,59.70
2023-01-01T03:42:04.203Z,56.00
2023-01-01T03:44:42.933Z,57.70
2023-01-01T03:47:16.113Z,55.00
2023-01-01T03:49:49.312Z,54.90
2023-01-01T03:52:32.772Z,59.80
2023-01-01T03:55:11.096Z,49.90
2023-01-01T03:57:52.159Z,55.70
2023-01-01T04:00:28.325Z,61.10
2023-01-01T04:03:05.639Z,54.60
2023-01-01T04:05:41.430Z,62.00
2023-01-01T04:08:16.798Z,55.50
2023-01-01T04:10:53.651Z,51.20
2023-01-01T04:13:26.531Z,56.90
2023-01-01T04:15:58.814Z,57.50
2023-01-01T04:18:31.145Z,59.30
2023-01-01T04:21:03.319Z,57.00
2023-01-01T04:23:35.536Z,58.80
2023-01-01T04:26:12.610Z,56.90
2023-01-01T04:28:45.308Z,64.50
2023-01-01T04:31:17.681Z,52.60
2023-01-01T04:33:49.848Z,55.10
2023-01-01T04:36:22.471Z,53.80
2023-01-01T04:38:54.767Z,63.50
2023-01-01T04:41:27.090Z,58.90
2023-01-01T04:43:59.544Z,50.40
2023-01-01T04:46:31.705Z,56.80
2023-01-01T04:49:03.974Z,51.30
2023-01-01T04:51:36.318Z,53.00
2023-01-01T04:54:09.128Z,62.00
2023-01-01T04:56:41.414Z,61.00
2023-01-01T04:59:13.681Z,59.80
2023-01-01T05:01:46.125Z,64.40
2023-01-01T05:04:19.626Z,63.60
2023-01-01T05:06:51.822Z,54.40
2023-01-01T05:09:24.137Z,57.30
2023-01-01T05:11:57.019Z,60.60
2023-01-01T05:14:29.531Z,65.30
2023-01-01T05:17:01.830Z,69.40
2023-01-01T05:19:34.030Z,70.10
2023-01-01T05:22:10.655Z,64.50
2023-01-01T05:24:43.446Z,67.50
2023-01-01T05:27:15.603Z,64.00
2023-01-01T05:29:47.770Z,68.00
2023-01-01T05:32:20.055Z,70.70
2023-01-01T05:34:53.253Z,67.50
2023-01-01T05:37:25.413Z,67.90
2023-01-01T05:39:57.838Z,64.80
2023-01-01T05:42:30.014Z,64.50
2023-01-01T05:45:02.207Z,68.80
2023-01-01T05:47:34.399Z,75.10
2023-01-01T05:52:38.911Z,63.70
2023-01-01T05:55:11.740Z,59.70
2023-01-01T05:57:43.930Z,74.00
2023-01-01T06:00:18.054Z,59.60
2023-01-01T06:02:51.743Z,66.20
2023-01-01T06:05:24.064Z,63.70
2023-01-01T06:07:56.255Z,63.70
2023-01-01T06:10:28.424Z,66.80
2023-01-01T06:13:00.566Z,63.90
2023-01-01T06:15:33.033Z,68.10
2023-01-01T06:18:05.354Z,65.40
2023-01-01T06:20:37.533Z,60.30
2023-01-01T06:23:09.810Z,69.10
2023-01-01T06:25:42.060Z,61.70
2023-01-01T06:28:14.246Z,63.50
2023-01-01T06:30:46.589Z,70.40
2023-01-01T06:33:18.886Z,61.70
2023-01-01T06:35:51.197Z,68.80
2023-01-01T06:38:23.381Z,66.50
2023-01-01T06:41:03.302Z,73.60
2023-01-01T06:43:36.751Z,68.00
2023-01-01T06:46:15.489Z,64.70
2023-01-01T06:48:49.312Z,77.30
2023-01-01T06:51:23.244Z,58.90
2023-01-01T06:53:56.014Z,56.10
2023-01-01T06:56:28.862Z,68.20
2023-01-01T06:59:01.577Z,68.80
2023-01-01T07:01:36.108Z,56.90
2023-01-01T07:04:13.058Z,65.20
2023-01-01T07:06:45.461Z,62.20
2023-01-01T07:09:17.631Z,67.30
2023-01-01T07:11:49.861Z,61.90
2023-01-01T07:14:22.044Z,71.00
2023-01-01T07:16:54.292Z,67.10
2023-01-01T07:19:26.436Z,64.40
2023-01-01T07:21:58.762Z,55.40
2023-01-01T07:24:31.023Z,63.20
2023-01-01T07:27:03.240Z,64.50
2023-01-01T07:29:35.574Z,64.70
2023-01-01T07:32:08.049Z,63.20
2023-01-01T07:34:40.243Z,59.20
2023-01-01T07:37:12.434Z,61.80
2023-01-01T07:39:44.583Z,55.80
2023-01-01T07:42:16.752Z,55.50
2023-01-01T07:44:48.948Z,63.00
2023-01-01T07:47:24.095Z,56.10
2023-01-01T07:49:56.391Z,57.50
2023-01-01T07:52:28.649Z,63.70
2023-01-01T07:55:00.803Z,63.50
2023-01-01T07:57:33.018Z,58.90
2023-01-01T08:00:05.790Z,62.70
2023-01-01T08:02:38.133Z,65.30
2023-01-01T08:05:11.367Z,64.70
2023-01-01T08:07:46.567Z,58.70
2023-01-01T08:10:20.522Z,59.50
2023-01-01T08:12:52.724Z,59.20
2023-01-01T08:15:24.922Z,56.60
2023-01-01T08:18:00.477Z,49.70
2023-01-01T08:20:34.268Z,55.70
2023-01-01T08:23:07.632Z,58.20
2023-01-01T08:25:40.335Z,57.80
2023-01-01T08:28:13.353Z,55.50
2023-01-01T08:30:45.580Z,56.90
2023-01-01T08:33:17.861Z,54.60
2023-01-01T08:35:54.093Z,51.60
2023-01-01T08:38:27.106Z,58.10
2023-01-01T08:40:59.423Z,56.10
2023-01-01T08:43:31.701Z,58.00
2023-01-01T08:46:04.128Z,58.60
2023-01-01T08:48:36.378Z,55.80
2023-01-01T08:51:08.938Z,57.60
2023-01-01T08:53:45.417Z,65.00
2023-01-01T08:56:21.543Z,58.50
2023-01-01T08:58:55.174Z,61.40
2023-01-01T09:01:31.397Z,53.10
2023-01-01T09:04:04.014Z,52.40
2023-01-01T09:06:36.217Z,49.70
2023-01-01T09:09:08.443Z,51.50
2023-01-01T09:11:40.798Z,52.30
2023-01-01T09:14:12.961Z,51.10
2023-01-01T09:16:45.347Z,58.80
2023-01-01T09:19:17.660Z,58.10
2023-01-01T09:21:49.826Z,50.70
2023-01-01T09:24:22.109Z,55.00
2023-01-01T09:26:54.382Z,55.00
2023-01-01T09:29:26.571Z,56.80
2023-01-01T09:31:58.770Z,59.20
2023-01-01T09:34:31.155Z,47.00
2023-01-01T09:37:03.297Z,55.00
2023-01-01T09:39:35.467Z,51.30
2023-01-01T09:42:21.215Z,48.40
2023-01-01T09:45:03.232Z,52.80
2023-01-01T09:47:39.649Z,52.00
2023-01-01T09:50:17.602Z,59.80
2023-01-01T09:52:55.579Z,46.10
2023-01-01T09:55:35.950Z,45.10
2023-01-01T09:58:11.185Z,49.40
2023-01-01T10:00:48.180Z,46.20
2023-01-01T10:03:39.661Z,47.90
2023-01-01T10:06:25.385Z,49.80
2023-01-01T10:09:09.002Z,43.90
2023-01-01T10:11:50.979Z,45.40
2023-01-01T10:14:29.159Z,41.10
2023-01-01T10:17:05.717Z,49.70
2023-01-01T10:19:42.972Z,45.60
2023-01-01T10:22:20.254Z,44.00
2023-01-01T10:24:57.434Z,42.30
2023-01-01T10:27:35.328Z,48.60
2023-01-01T10:30:18.058Z,42.80
2023-01-01T10:32:52.266Z,40.50
2023-01-01T10:35:31.373Z,42.20
2023-01-01T10:38:05.208Z,42.80
2023-01-01T10:40:37.458Z,44.70
2023-01-01T10:43:14.115Z,43.10
2023-01-01T10:45:50.043Z,49.80
2023-01-01T10:48:24.300Z,42.20
2023-01-01T10:50:59.331Z,40.50
2023-01-01T10:53:36.060Z,46.10
2023-01-01T10:56:11.905Z,44.80
2023-01-01T10:58:49.636Z,50.80
2023-01-01T11:01:26.347Z,46.00
2023-01-01T11:04:01.642Z,46.20
2023-01-01T11:06:37.556Z,48.80
2023-01-01T11:09:22.927Z,39.60
2023-01-01T11:12:07.865Z,42.30
2023-01-01T11:14:43.669Z,42.30
2023-01-01T11:17:24.159Z,47.70
2023-01-01T11:20:02.104Z,38.70
2023-01-01T11:22:45.488Z,36.20
2023-01-01T11:25:25.300Z,36.20
2023-01-01T11:28:22.039Z,41.00
2023-01-01T11:33:37.411Z,33.70
2023-01-01T11:36:11.058Z,34.70
2023-01-01T11:38:43.253Z,39.30
2023-01-01T11:41:15.501Z,39.30
2023-01-01T11:43:50.238Z,42.60
2023-01-01T11:46:26.697Z,41.20
2023-01-01T11:48:59.386Z,39.90
2023-01-01T11:51:34.509Z,41.90
2023-01-01T11:54:34.261Z,36.90
2023-01-01T11:57:13.536Z,35.30
2023-01-01T11:59:52.272Z,31.10
2023-01-01T12:02:35.704Z,36.40
2023-01-01T12:05:17.381Z,28.20
2023-01-01T12:07:50.777Z,35.00
2023-01-01T12:10:27.546Z,36.70
2023-01-01T12:13:07.274Z,36.00
2023-01-01T12:15:47.668Z,29.70
2023-01-01T12:18:27.810Z,36.20
2023-01-01T12:21:08.710Z,34.60
2023-01-01T12:23:41.447Z,38.00
2023-01-01T12:26:24.094Z,30.20
2023-01-01T12:29:22.351Z,28.40
2023-01-01T12:32:04.746Z,34.50
2023-01-01T12:34:43.682Z,40.10
2023-01-01T12:37:26.075Z,38.30
2023-01-01T12:40:35.129Z,35.30
2023-01-01T12:43:09.939Z,29.80
2023-01-01T12:46:30.050Z,29.50
2023-01-01T12:49:18.313Z,24.60
2023-01-01T12:51:58.681Z,26.70
2023-01-01T12:55:22.833Z,23.20
2023-01-01T12:58:04.729Z,29.80
2023-01-01T13:00:41.709Z,27.10
2023-01-01T13:03:34.106Z,30.30
2023-01-01T13:06:08.876Z,28.70
2023-01-01T13:08:43.392Z,26.40
2023-01-01T13:11:16.811Z,29.90
2023-01-01T13:13:49.037Z,30.30
2023-01-01T13:16:36.757Z,28.60
2023-01-01T13:19:24.937Z,27.40
2023-01-01T13:21:57.176Z,23.50
2023-01-01T13:24:30.366Z,32.00
2023-01-01T13:27:07.299Z,33.30
2023-01-01T13:29:51.467Z,30.50
2023-01-01T13:32:23.701Z,25.90
2023-01-01T13:35:16.987Z,27.50
2023-01-01T13:37:50.151Z,26.40
2023-01-01T13:43:36.334Z,25.00
2023-01-01T13:46:17.486Z,26.10
2023-01-01T13:49:12.711Z,27.10
2023-01-01T13:52:18.409Z,27.00
2023-01-01T13:55:17.121Z,25.60
2023-01-01T13:58:20.207Z,27.30
2023-01-01T14:01:14.947Z,25.60
2023-01-01T14:03:51.161Z,27.20
2023-01-01T14:06:32.319Z,29.70
2023-01-01T14:09:13.694Z,25.00
2023-01-01T14:11:46.149Z,29.30
2023-01-01T14:14:29.669Z,26.50
2023-01-01T14:17:03.921Z,33.10
2023-01-01T14:19:37.113Z,31.00
2023-01-01T14:22:11.706Z,24.20
2023-01-01T14:24:47.388Z,26.00
2023-01-01T14:27:22.789Z,25.00
2023-01-01T14:29:55.631Z,33.30
2023-01-01T14:32:33.298Z,33.10
2023-01-01T14:35:14.666Z,28.10
2023-01-01T14:37:46.873Z,30.80
2023-01-01T14:40:26.883Z,29.60
2023-01-01T14:43:03.519Z,28.50
2023-01-01T14:45:39.112Z,26.30
2023-01-01T14:48:20.474Z,26.10
2023-01-01T14:50:54.332Z,35.10
2023-01-01T14:53:34.179Z,27.70
2023-01-01T14:56:08.153Z,25.30
2023-01-01T14:58:43.328Z,26.10
2023-01-01T15:01:23.215Z,27.40
2023-01-01T15:04:01.795Z,25.10
2023-01-01T15:06:34.302Z,29.60
2023-01-01T15:09:06.826Z,32.40
2023-01-01T15:11:39.018Z,29.90
2023-01-01T15:14:34.830Z,24.00
2023-01-01T15:17:09.462Z,31.50
2023-01-01T15:19:43.777Z,27.00
2023-01-01T15:22:24.005Z,25.70
2023-01-01T15:24:57.034Z,30.90
2023-01-01T15:27:31.548Z,25.40
2023-01-01T15:30:13.310Z,27.30
2023-01-01T15:32:45.977Z,25.30
2023-01-01T15:35:31.420Z,30.10
2023-01-01T15:38:11.355Z,31.30
2023-01-01T15:40:51.124Z,28.90
2023-01-01T15:43:27.344Z,27.50
2023-01-01T15:46:01.804Z,31.30
2023-01-01T15:48:38.998Z,33.40
2023-01-01T15:51:17.179Z,35.80
2023-01-01T15:53:57.640Z,30.30
2023-01-01T15:56:32.048Z,27.00
2023-01-01T15:59:09.409Z,29.20
2023-01-01T16:01:43.978Z,25.30
2023-01-01T16:04:28.050Z,31.80
2023-01-01T16:07:01.580Z,25.40
2023-01-01T16:09:36.101Z,32.10
2023-01-01T16:12:09.970Z,30.40
2023-01-01T16:14:42.166Z,29.80
2023-01-01T16:17:17.676Z,29.40
2023-01-01T16:19:51.693Z,38.80
2023-01-01T16:22:23.901Z,31.90
2023-01-01T16:24:56.114Z,34.40
2023-01-01T16:27:28.326Z,32.80
2023-01-01T16:30:00.488Z,29.80
2023-01-01T16:32:32.733Z,29.60
2023-01-01T16:35:11.593Z,31.70
2023-01-01T16:37:44.343Z,27.30
2023-01-01T16:40:16.866Z,30.60
2023-01-01T16:42:49.028Z,32.00
2023-01-01T16:45:21.311Z,31.50
2023-01-01T16:47:54.861Z,28.80
2023-01-01T16:50:27.051Z,33.00
2023-01-01T16:52:59.268Z,35.70
2023-01-01T16:55:31.465Z,33.90
2023-01-01T16:58:46.883Z,31.60
2023-01-01T17:01:02.326Z,32.70
2023-01-01T17:03:35.358Z,38.70
2023-01-01T17:06:08.974Z,34.20
2023-01-01T17:08:41.578Z,30.80
2023-01-01T17:11:18.714Z,32.40
2023-01-01T17:13:51.304Z,37.30
2023-01-01T17:16:27.313Z,37.40
2023-01-01T17:19:17.679Z,38.10
2023-01-01T17:21:50.673Z,31.70
2023-01-01T17:24:23.671Z,28.40
2023-01-01T17:26:57.503Z,36.60
2023-01-01T17:29:29.779Z,32.30
2023-01-01T17:32:02.010Z,34.20
2023-01-01T17:34:34.279Z,33.80
2023-01-01T17:37:06.425Z,34.20
2023-01-01T17:39:38.589Z,31.50
2023-01-01T17:42:10.783Z,39.80
2023-01-01T17:44:43.073Z,34.50
2023-01-01T17:47:15.399Z,33.90
2023-01-01T17:49:48.683Z,35.70
2023-01-01T17:52:20.920Z,33.90
2023-01-01T17:54:53.130Z,37.90
2023-01-01T17:57:25.369Z,36.10
2023-01-01T17:59:59.497Z,35.20
2023-01-01T18:02:33.795Z,33.40
2023-01-01T18:05:06.485Z,37.10
2023-01-01T18:07:38.717Z,44.10
2023-01-01T18:10:12.003Z,37.00
2023-01-01T18:12:44.267Z,33.60
2023-01-01T18:15:16.629Z,36.80
2023-01-01T18:17:49.100Z,37.40
2023-01-01T18:20:21.425Z,38.60
2023-01-01T18:22:56.526Z,35.80
2023-01-01T18:25:28.727Z,40.30
2023-01-01T18:28:00.887Z,42.30
2023-01-01T18:30:33.815Z,43.80
2023-01-01T18:33:06.259Z,32.00
2023-01-01T18:35:38.552Z,39.20
2023-01-01T18:38:13.963Z,32.80
2023-01-01T18:41:00.200Z,39.10
2023-01-01T18:43:32.345Z,32.80
2023-01-01T18:46:09.125Z,32.20
2023-01-01T18:48:42.824Z,35.00
2023-01-01T18:51:22.298Z,37.70
2023-01-01T18:53:56.915Z,32.30
2023-01-01T18:56:31.482Z,38.10
2023-01-01T18:59:04.357Z,34.50
2023-01-01T19:01:36.825Z,37.40
2023-01-01T19:04:13.567Z,36.20
2023-01-01T19:06:45.747Z,34.00
2023-01-01T19:09:23.473Z,36.30
2023-01-01T19:11:58.112Z,37.80
2023-01-01T19:14:32.823Z,36.70
2023-01-01T19:17:14.272Z,36.50
2023-01-01T19:19:47.909Z,36.10
2023-01-01T19:22:29.899Z,33.10
2023-01-01T19:25:03.069Z,33.60
2023-01-01T19:27:35.942Z,34.70
2023-01-01T19:30:23.535Z,34.10
2023-01-01T19:32:55.811Z,33.30
2023-01-01T19:35:28.006Z,33.10
2023-01-01T19:38:00.222Z,31.80
2023-01-01T19:40:32.644Z,31.10
2023-01-01T19:43:06.968Z,32.70
2023-01-01T19:45:39.205Z,36.60
2023-01-01T19:48:11.533Z,31.70
2023-01-01T19:50:43.820Z,27.40
2023-01-01T19:53:16.044Z,34.30
2023-01-01T19:55:48.383Z,31.80
2023-01-01T19:58:22.259Z,28.00
2023-01-01T20:00:54.550Z,30.30
2023-01-01T20:03:53.001Z,27.80
2023-01-01T20:06:19.138Z,29.50
2023-01-01T20:08:51.499Z,29.10
2023-01-01T20:11:24.242Z,29.00
2023-01-01T20:13:56.575Z,28.70
2023-01-01T20:16:28.835Z,29.70
2023-01-01T20:19:01.220Z,34.50
2023-01-01T20:21:50.743Z,27.40
2023-01-01T20:24:22.926Z,32.00
2023-01-01T20:26:56.569Z,39.70
2023-01-01T20:29:28.918Z,34.60
2023-01-01T20:32:01.257Z,30.50
2023-01-01T20:34:33.688Z,37.40
2023-01-01T20:37:23.591Z,28.10
2023-01-01T20:39:55.850Z,28.30
2023-01-01T20:42:28.795Z,27.30
2023-01-01T20:45:01.271Z,32.30
2023-01-01T20:47:33.677Z,27.30
2023-01-01T20:50:06.087Z,25.10
2023-01-01T20:52:38.371Z,27.10
2023-01-01T20:55:11.615Z,27.00
2023-01-01T20:57:43.787Z,27.30
2023-01-01T21:00:17.245Z,27.30
2023-01-01T21:02:49.669Z,32.60
2023-01-01T21:05:22.098Z,29.90
2023-01-01T21:07:54.320Z,28.10
2023-01-01T21:10:26.511Z,30.10
2023-01-01T21:12:58.720Z,30.30
2023-01-01T21:15:31.012Z,26.90
2023-01-01T21:18:04.815Z,32.00
2023-01-01T21:20:40.292Z,38.60
2023-01-01T21:23:23.338Z,33.40
2023-01-01T21:25:55.651Z,33.60
2023-01-01T21:28:33.123Z,39.30
2023-01-01T21:31:11.722Z,30.90
2023-01-01T21:33:45.543Z,35.90
2023-01-01T21:36:23.107Z,33.00
2023-01-01T21:38:55.306Z,34.70
2023-01-01T21:41:28.012Z,32.40
2023-01-01T21:44:01.539Z,33.40
2023-01-01T21:46:39.614Z,51.80
2023-01-01T21:49:20.457Z,41.10
2023-01-01T21:51:56.864Z,40.60
2023-01-01T21:54:34.652Z,36.60
2023-01-01T21:57:20.779Z,39.20
2023-01-01T21:59:55.063Z,36.50
2023-01-01T22:02:47.206Z,36.00
2023-01-01T22:05:30.425Z,36.70
2023-01-01T22:08:24.576Z,37.30
2023-01-01T22:10:57.545Z,35.90
2023-01-01T22:13:30.078Z,40.00
2023-01-01T22:16:03.241Z,39.50
2023-01-01T22:18:40.682Z,35.10
2023-01-01T22:21:18.514Z,34.80
2023-01-01T22:23:53.057Z,35.00
2023-01-01T22:26:28.691Z,36.10
2023-01-01T22:29:04.611Z,34.20
2023-01-01T22:34:20.741Z,41.30
2023-01-01T22:36:52.966Z,37.70
2023-01-01T22:39:30.408Z,39.90
2023-01-01T22:42:03.651Z,37.30
2023-01-01T22:44:37.049Z,36.40
2023-01-01T22:47:14.222Z,33.50
2023-01-01T22:49:51.506Z,34.50
2023-01-01T22:52:23.760Z,33.70
2023-01-01T22:54:55.989Z,37.10
2023-01-01T22:57:28.213Z,34.40
2023-01-01T23:00:00.407Z,37.40
2023-01-01T23:02:32.762Z,35.00
2023-01-01T23:05:05.273Z,34.20
2023-01-01T23:07:41.941Z,41.20
2023-01-01T23:10:16.168Z,36.90
2023-01-01T23:12:48.472Z,33.10
2023-01-01T23:15:38.370Z,35.00
2023-01-01T23:18:15.343Z,43.60
2023-01-01T23:20:47.648Z,37.20
2023-01-01T23:23:20.248Z,33.30
2023-01-01T23:25:52.531Z,44.70
2023-01-01T23:28:25.299Z,36.50
2023-01-01T23:30:58.799Z,33.70
2023-01-01T23:33:32.199Z,35.40
2023-01-01T23:36:05.147Z,38.60
2023-01-01T23:38:37.804Z,35.80
2023-01-01T23:41:10.339Z,36.20
2023-01-01T23:43:43.777Z,34.90
2023-01-01T23:46:16.842Z,37.30
2023-01-01T23:48:50.561Z,36.50
2023-01-01T23:51:23.162Z,39.90
2023-01-01T23:53:55.404Z,42.50
2023-01-01T23:56:27.701Z,38.50
2023-01-01T23:58:59.892Z,38.30
